sensor_id;sensor_type;location;lat;lon;timestamp;temperature;humidity
42097;DHT22;27754;45.414;11.084;2023-06-14T00:00:48;21.10;73.50
42097;DHT22;27754;45.414;11.084;2023-06-14T00:03:15;21.10;73.30
42097;DHT22;27754;45.414;11.084;2023-06-14T00:05:44;21.10;73.30
42097;DHT22;27754;45.414;11.084;2023-06-14T00:08:13;21.10;73.30
42097;DHT22;27754;45.414;11.084;2023-06-14T00:10:40;21.00;73.40
42097;DHT22;27754;45.414;11.084;2023-06-14T00:13:09;21.00;73.50
42097;DHT22;27754;45.414;11.084;2023-06-14T00:15:36;20.90;73.70
42097;DHT22;27754;45.414;11.084;2023-06-14T00:18:04;20.90;73.90
42097;DHT22;27754;45.414;11.084;2023-06-14T00:20:32;20.90;74.00
42097;DHT22;27754;45.414;11.084;2023-06-14T00:23:00;21.00;74.30
42097;DHT22;27754;45.414;11.084;2023-06-14T00:25:28;20.90;75.30
42097;DHT22;27754;45.414;11.084;2023-06-14T00:27:57;20.70;76.70
42097;DHT22;27754;45.414;11.084;2023-06-14T00:30:25;20.60;76.80
42097;DHT22;27754;45.414;11.084;2023-06-14T00:32:52;20.60;77.30
42097;DHT22;27754;45.414;11.084;2023-06-14T00:35:19;20.60;77.40
42097;DHT22;27754;45.414;11.084;2023-06-14T00:37:46;20.60;77.00
42097;DHT22;27754;45.414;11.084;2023-06-14T00:40:13;20.50;77.10
42097;DHT22;27754;45.414;11.084;2023-06-14T00:42:41;20.50;75.80
42097;DHT22;27754;45.414;11.084;2023-06-14T00:45:09;20.50;75.00
42097;DHT22;27754;45.414;11.084;2023-06-14T00:47:38;20.50;75.20
42097;DHT22;27754;45.414;11.084;2023-06-14T00:50:09;20.50;75.20
42097;DHT22;27754;45.414;11.084;2023-06-14T00:52:36;20.50;74.90
42097;DHT22;27754;45.414;11.084;2023-06-14T00:55:04;20.60;74.20
42097;DHT22;27754;45.414;11.084;2023-06-14T00:57:31;20.60;74.40
42097;DHT22;27754;45.414;11.084;2023-06-14T00:59:58;20.70;74.30
42097;DHT22;27754;45.414;11.084;2023-06-14T01:02:25;20.70;74.40
42097;DHT22;27754;45.414;11.084;2023-06-14T01:04:53;20.70;74.40
42097;DHT22;27754;45.414;11.084;2023-06-14T01:07:43;20.70;73.80
42097;DHT22;27754;45.414;11.084;2023-06-14T01:10:47;20.70;73.80
42097;DHT22;27754;45.414;11.084;2023-06-14T01:13:40;20.80;73.80
42097;DHT22;27754;45.414;11.084;2023-06-14T01:16:08;20.80;73.90
42097;DHT22;27754;45.414;11.084;2023-06-14T01:18:36;20.80;73.90
42097;DHT22;27754;45.414;11.084;2023-06-14T01:21:03;20.80;74.40
42097;DHT22;27754;45.414;11.084;2023-06-14T01:23:35;20.80;74.60
42097;DHT22;27754;45.414;11.084;2023-06-14T01:26:02;20.70;75.20
42097;DHT22;27754;45.414;11.084;2023-06-14T01:28:33;20.70;75.60
42097;DHT22;27754;45.414;11.084;2023-06-14T01:31:02;20.60;75.90
42097;DHT22;27754;45.414;11.084;2023-06-14T01:33:33;20.50;76.40
42097;DHT22;27754;45.414;11.084;2023-06-14T01:36:02;20.50;76.60
42097;DHT22;27754;45.414;11.084;2023-06-14T01:38:32;20.40;76.80
42097;DHT22;27754;45.414;11.084;2023-06-14T01:40:59;20.30;77.20
42097;DHT22;27754;45.414;11.084;2023-06-14T01:43:30;20.30;77.80
42097;DHT22;27754;45.414;11.084;2023-06-14T01:45:58;20.20;78.20
42097;DHT22;27754;45.414;11.084;2023-06-14T01:48:26;20.10;78.40
42097;DHT22;27754;45.414;11.084;2023-06-14T01:50:53;20.10;78.60
42097;DHT22;27754;45.414;11.084;2023-06-14T01:53:20;20.00;78.90
42097;DHT22;27754;45.414;11.084;2023-06-14T01:55:47;20.00;79.00
42097;DHT22;27754;45.414;11.084;2023-06-14T01:58:16;20.00;78.90
42097;DHT22;27754;45.414;11.084;2023-06-14T02:00:46;20.00;78.50
42097;DHT22;27754;45.414;11.084;2023-06-14T02:03:14;19.90;79.00
42097;DHT22;27754;45.414;11.084;2023-06-14T02:05:42;20.00;79.00
42097;DHT22;27754;45.414;11.084;2023-06-14T02:08:09;20.00;79.10
42097;DHT22;27754;45.414;11.084;2023-06-14T02:10:37;20.00;79.20
42097;DHT22;27754;45.414;11.084;2023-06-14T02:13:04;20.00;79.30
42097;DHT22;27754;45.414;11.084;2023-06-14T02:15:31;19.90;79.70
42097;DHT22;27754;45.414;11.084;2023-06-14T02:18:02;19.80;79.70
42097;DHT22;27754;45.414;11.084;2023-06-14T02:20:32;19.70;79.90
42097;DHT22;27754;45.414;11.084;2023-06-14T02:22:59;19.70;79.60
42097;DHT22;27754;45.414;11.084;2023-06-14T02:25:26;19.70;79.60
42097;DHT22;27754;45.414;11.084;2023-06-14T02:27:57;19.60;79.70
42097;DHT22;27754;45.414;11.084;2023-06-14T02:30:24;19.40;79.80
42097;DHT22;27754;45.414;11.084;2023-06-14T02:32:51;19.40;80.00
42097;DHT22;27754;45.414;11.084;2023-06-14T02:35:18;19.20;80.40
42097;DHT22;27754;45.414;11.084;2023-06-14T02:37:45;19.10;80.90
42097;DHT22;27754;45.414;11.084;2023-06-14T02:40:12;19.00;80.60
42097;DHT22;27754;45.414;11.084;2023-06-14T02:42:40;18.90;80.50
42097;DHT22;27754;45.414;11.084;2023-06-14T02:45:07;18.90;80.20
42097;DHT22;27754;45.414;11.084;2023-06-14T02:47:35;18.80;80.60
42097;DHT22;27754;45.414;11.084;2023-06-14T02:50:02;18.80;80.70
42097;DHT22;27754;45.414;11.084;2023-06-14T02:52:29;18.80;80.60
42097;DHT22;27754;45.414;11.084;2023-06-14T02:54:56;18.80;80.70
42097;DHT22;27754;45.414;11.084;2023-06-14T02:57:23;18.80;81.00
42097;DHT22;27754;45.414;11.084;2023-06-14T02:59:51;18.70;81.60
42097;DHT22;27754;45.414;11.084;2023-06-14T03:02:19;18.60;81.70
42097;DHT22;27754;45.414;11.084;2023-06-14T03:04:46;18.50;81.90
42097;DHT22;27754;45.414;11.084;2023-06-14T03:07:16;18.50;82.30
42097;DHT22;27754;45.414;11.084;2023-06-14T03:09:49;18.40;82.20
42097;DHT22;27754;45.414;11.084;2023-06-14T03:12:17;18.50;82.20
42097;DHT22;27754;45.414;11.084;2023-06-14T03:14:44;18.60;82.10
42097;DHT22;27754;45.414;11.084;2023-06-14T03:17:16;18.60;82.10
42097;DHT22;27754;45.414;11.084;2023-06-14T03:19:44;18.70;82.20
42097;DHT22;27754;45.414;11.084;2023-06-14T03:22:12;18.80;82.20
42097;DHT22;27754;45.414;11.084;2023-06-14T03:24:40;18.90;82.00
42097;DHT22;27754;45.414;11.084;2023-06-14T03:27:10;18.80;81.40
42097;DHT22;27754;45.414;11.084;2023-06-14T03:29:42;18.90;81.40
42097;DHT22;27754;45.414;11.084;2023-06-14T03:32:09;18.90;81.10
42097;DHT22;27754;45.414;11.084;2023-06-14T03:34:39;18.90;81.10
42097;DHT22;27754;45.414;11.084;2023-06-14T03:37:08;18.90;81.20
42097;DHT22;27754;45.414;11.084;2023-06-14T03:39:35;18.80;81.70
42097;DHT22;27754;45.414;11.084;2023-06-14T03:42:03;18.80;81.40
42097;DHT22;27754;45.414;11.084;2023-06-14T03:44:31;18.70;81.90
42097;DHT22;27754;45.414;11.084;2023-06-14T03:47:00;18.90;81.40
42097;DHT22;27754;45.414;11.084;2023-06-14T03:49:28;18.90;81.20
42097;DHT22;27754;45.414;11.084;2023-06-14T03:51:55;19.00;80.40
42097;DHT22;27754;45.414;11.084;2023-06-14T03:54:23;19.10;80.20
42097;DHT22;27754;45.414;11.084;2023-06-14T03:56:54;19.20;79.70
42097;DHT22;27754;45.414;11.084;2023-06-14T03:59:23;19.20;79.70
42097;DHT22;27754;45.414;11.084;2023-06-14T04:01:51;19.20;79.70
42097;DHT22;27754;45.414;11.084;2023-06-14T04:04:18;19.30;79.20
42097;DHT22;27754;45.414;11.084;2023-06-14T04:06:45;19.40;79.30
42097;DHT22;27754;45.414;11.084;2023-06-14T04:09:15;19.60;78.90
42097;DHT22;27754;45.414;11.084;2023-06-14T04:11:42;19.70;78.90
42097;DHT22;27754;45.414;11.084;2023-06-14T04:14:09;19.80;78.20
42097;DHT22;27754;45.414;11.084;2023-06-14T04:16:37;19.90;78.20
42097;DHT22;27754;45.414;11.084;2023-06-14T04:19:04;20.20;78.20
42097;DHT22;27754;45.414;11.084;2023-06-14T04:21:31;20.70;76.20
42097;DHT22;27754;45.414;11.084;2023-06-14T04:24:03;20.70;76.00
42097;DHT22;27754;45.414;11.084;2023-06-14T04:26:32;20.90;75.60
42097;DHT22;27754;45.414;11.084;2023-06-14T04:29:00;20.90;75.90
42097;DHT22;27754;45.414;11.084;2023-06-14T04:31:31;20.90;75.90
42097;DHT22;27754;45.414;11.084;2023-06-14T04:34:06;20.90;76.10
42097;DHT22;27754;45.414;11.084;2023-06-14T04:36:35;20.80;76.30
42097;DHT22;27754;45.414;11.084;2023-06-14T04:39:04;20.60;76.70
42097;DHT22;27754;45.414;11.084;2023-06-14T04:41:31;20.60;77.20
42097;DHT22;27754;45.414;11.084;2023-06-14T04:44:00;20.70;76.90
42097;DHT22;27754;45.414;11.084;2023-06-14T04:46:32;20.70;77.30
42097;DHT22;27754;45.414;11.084;2023-06-14T04:49:00;20.90;77.50
42097;DHT22;27754;45.414;11.084;2023-06-14T04:51:29;21.00;76.60
42097;DHT22;27754;45.414;11.084;2023-06-14T04:53:57;21.00;76.50
42097;DHT22;27754;45.414;11.084;2023-06-14T04:56:26;21.30;75.70
42097;DHT22;27754;45.414;11.084;2023-06-14T04:58:54;21.20;76.80
42097;DHT22;27754;45.414;11.084;2023-06-14T05:01:23;21.10;76.40
42097;DHT22;27754;45.414;11.084;2023-06-14T05:03:50;21.10;76.40
42097;DHT22;27754;45.414;11.084;2023-06-14T05:06:17;20.90;75.40
42097;DHT22;27754;45.414;11.084;2023-06-14T05:08:45;21.00;74.90
42097;DHT22;27754;45.414;11.084;2023-06-14T05:11:12;21.40;74.80
42097;DHT22;27754;45.414;11.084;2023-06-14T05:13:39;22.00;73.00
42097;DHT22;27754;45.414;11.084;2023-06-14T05:16:09;22.60;72.00
42097;DHT22;27754;45.414;11.084;2023-06-14T05:18:38;22.90;70.80
42097;DHT22;27754;45.414;11.084;2023-06-14T05:21:06;23.00;70.90
42097;DHT22;27754;45.414;11.084;2023-06-14T05:23:33;23.20;69.90
42097;DHT22;27754;45.414;11.084;2023-06-14T05:26:01;23.30;70.30
42097;DHT22;27754;45.414;11.084;2023-06-14T05:28:29;23.60;68.80
42097;DHT22;27754;45.414;11.084;2023-06-14T05:30:57;23.90;67.30
42097;DHT22;27754;45.414;11.084;2023-06-14T05:33:25;23.90;66.00
42097;DHT22;27754;45.414;11.084;2023-06-14T05:35:52;23.50;66.10
42097;DHT22;27754;45.414;11.084;2023-06-14T05:38:19;23.00;65.90
42097;DHT22;27754;45.414;11.084;2023-06-14T05:40:46;22.80;67.10
42097;DHT22;27754;45.414;11.084;2023-06-14T05:43:13;22.60;68.10
42097;DHT22;27754;45.414;11.084;2023-06-14T05:45:39;22.40;68.50
42097;DHT22;27754;45.414;11.084;2023-06-14T05:48:06;22.20;69.10
42097;DHT22;27754;45.414;11.084;2023-06-14T05:50:33;22.20;69.10
42097;DHT22;27754;45.414;11.084;2023-06-14T05:53:00;22.10;70.20
42097;DHT22;27754;45.414;11.084;2023-06-14T05:55:27;22.10;69.50
42097;DHT22;27754;45.414;11.084;2023-06-14T05:57:54;22.10;69.60
42097;DHT22;27754;45.414;11.084;2023-06-14T06:00:21;22.20;69.40
42097;DHT22;27754;45.414;11.084;2023-06-14T06:02:48;22.10;69.60
42097;DHT22;27754;45.414;11.084;2023-06-14T06:05:16;22.10;69.60
42097;DHT22;27754;45.414;11.084;2023-06-14T06:07:43;22.00;70.20
42097;DHT22;27754;45.414;11.084;2023-06-14T06:10:13;22.00;70.40
42097;DHT22;27754;45.414;11.084;2023-06-14T06:12:41;22.10;70.20
42097;DHT22;27754;45.414;11.084;2023-06-14T06:15:09;22.10;70.00
42097;DHT22;27754;45.414;11.084;2023-06-14T06:17:40;22.10;71.00
42097;DHT22;27754;45.414;11.084;2023-06-14T06:20:23;22.10;70.00
42097;DHT22;27754;45.414;11.084;2023-06-14T06:22:55;22.00;70.00
42097;DHT22;27754;45.414;11.084;2023-06-14T06:25:23;22.00;70.80
42097;DHT22;27754;45.414;11.084;2023-06-14T06:27:53;21.90;70.50
42097;DHT22;27754;45.414;11.084;2023-06-14T06:30:20;21.90;70.90
42097;DHT22;27754;45.414;11.084;2023-06-14T06:32:47;22.00;70.70
42097;DHT22;27754;45.414;11.084;2023-06-14T06:35:14;21.90;70.80
42097;DHT22;27754;45.414;11.084;2023-06-14T06:37:42;22.00;70.50
42097;DHT22;27754;45.414;11.084;2023-06-14T06:40:10;21.90;70.50
42097;DHT22;27754;45.414;11.084;2023-06-14T06:42:37;22.00;69.80
42097;DHT22;27754;45.414;11.084;2023-06-14T06:45:05;22.00;70.40
42097;DHT22;27754;45.414;11.084;2023-06-14T06:47:32;22.10;69.50
42097;DHT22;27754;45.414;11.084;2023-06-14T06:49:59;22.10;69.90
42097;DHT22;27754;45.414;11.084;2023-06-14T06:52:26;22.10;69.80
42097;DHT22;27754;45.414;11.084;2023-06-14T06:54:53;22.20;69.70
42097;DHT22;27754;45.414;11.084;2023-06-14T06:57:22;22.20;69.70
42097;DHT22;27754;45.414;11.084;2023-06-14T06:59:51;22.20;69.90
42097;DHT22;27754;45.414;11.084;2023-06-14T07:02:18;22.20;70.10
42097;DHT22;27754;45.414;11.084;2023-06-14T07:04:45;22.30;69.60
42097;DHT22;27754;45.414;11.084;2023-06-14T07:07:12;22.30;69.50
42097;DHT22;27754;45.414;11.084;2023-06-14T07:09:39;22.40;69.50
42097;DHT22;27754;45.414;11.084;2023-06-14T07:12:09;22.40;68.80
42097;DHT22;27754;45.414;11.084;2023-06-14T07:14:37;22.40;70.00
42097;DHT22;27754;45.414;11.084;2023-06-14T07:17:04;22.40;69.20
42097;DHT22;27754;45.414;11.084;2023-06-14T07:19:32;22.30;69.60
42097;DHT22;27754;45.414;11.084;2023-06-14T07:21:59;22.40;69.20
42097;DHT22;27754;45.414;11.084;2023-06-14T07:24:26;22.40;69.20
42097;DHT22;27754;45.414;11.084;2023-06-14T07:26:55;22.50;68.80
42097;DHT22;27754;45.414;11.084;2023-06-14T07:29:23;22.60;69.10
42097;DHT22;27754;45.414;11.084;2023-06-14T07:31:50;22.80;68.30
42097;DHT22;27754;45.414;11.084;2023-06-14T07:34:17;22.90;68.00
42097;DHT22;27754;45.414;11.084;2023-06-14T07:36:44;23.00;67.50
42097;DHT22;27754;45.414;11.084;2023-06-14T07:39:12;23.00;67.30
42097;DHT22;27754;45.414;11.084;2023-06-14T07:41:39;22.90;67.20
42097;DHT22;27754;45.414;11.084;2023-06-14T07:44:06;23.10;67.20
42097;DHT22;27754;45.414;11.084;2023-06-14T07:46:33;23.10;66.80
42097;DHT22;27754;45.414;11.084;2023-06-14T07:49:01;23.00;66.80
42097;DHT22;27754;45.414;11.084;2023-06-14T07:51:28;22.90;67.00
42097;DHT22;27754;45.414;11.084;2023-06-14T07:53:55;23.00;67.10
42097;DHT22;27754;45.414;11.084;2023-06-14T07:56:23;23.10;67.00
42097;DHT22;27754;45.414;11.084;2023-06-14T07:58:50;23.20;66.30
42097;DHT22;27754;45.414;11.084;2023-06-14T08:01:16;23.20;66.10
42097;DHT22;27754;45.414;11.084;2023-06-14T08:03:44;23.00;67.10
42097;DHT22;27754;45.414;11.084;2023-06-14T08:06:12;23.10;66.20
42097;DHT22;27754;45.414;11.084;2023-06-14T08:08:39;23.00;66.10
42097;DHT22;27754;45.414;11.084;2023-06-14T08:11:06;23.00;66.50
42097;DHT22;27754;45.414;11.084;2023-06-14T08:13:33;22.90;65.80
42097;DHT22;27754;45.414;11.084;2023-06-14T08:16:00;23.10;66.20
42097;DHT22;27754;45.414;11.084;2023-06-14T08:18:28;23.30;65.10
42097;DHT22;27754;45.414;11.084;2023-06-14T08:20:56;23.20;64.70
42097;DHT22;27754;45.414;11.084;2023-06-14T08:23:24;23.20;65.00
42097;DHT22;27754;45.414;11.084;2023-06-14T08:25:51;23.30;64.50
42097;DHT22;27754;45.414;11.084;2023-06-14T08:28:18;23.30;63.90
42097;DHT22;27754;45.414;11.084;2023-06-14T08:30:45;23.30;64.60
42097;DHT22;27754;45.414;11.084;2023-06-14T08:33:12;23.30;63.90
42097;DHT22;27754;45.414;11.084;2023-06-14T08:35:43;23.40;64.40
42097;DHT22;27754;45.414;11.084;2023-06-14T08:38:11;23.50;64.20
42097;DHT22;27754;45.414;11.084;2023-06-14T08:40:40;23.40;64.50
42097;DHT22;27754;45.414;11.084;2023-06-14T08:43:08;23.60;64.40
42097;DHT22;27754;45.414;11.084;2023-06-14T08:45:35;23.60;63.70
42097;DHT22;27754;45.414;11.084;2023-06-14T08:48:03;23.70;64.10
42097;DHT22;27754;45.414;11.084;2023-06-14T08:50:31;23.80;63.90
42097;DHT22;27754;45.414;11.084;2023-06-14T08:53:01;23.90;63.90
42097;DHT22;27754;45.414;11.084;2023-06-14T08:55:31;23.80;63.90
42097;DHT22;27754;45.414;11.084;2023-06-14T08:58:03;23.80;63.90
42097;DHT22;27754;45.414;11.084;2023-06-14T09:00:31;23.80;63.70
42097;DHT22;27754;45.414;11.084;2023-06-14T09:03:00;23.80;63.80
42097;DHT22;27754;45.414;11.084;2023-06-14T09:05:28;23.90;64.10
42097;DHT22;27754;45.414;11.084;2023-06-14T09:07:55;24.10;63.10
42097;DHT22;27754;45.414;11.084;2023-06-14T09:10:32;24.10;63.40
42097;DHT22;27754;45.414;11.084;2023-06-14T09:13:05;24.10;63.60
42097;DHT22;27754;45.414;11.084;2023-06-14T09:15:34;24.10;63.90
42097;DHT22;27754;45.414;11.084;2023-06-14T09:18:02;24.20;63.40
42097;DHT22;27754;45.414;11.084;2023-06-14T09:20:30;24.20;63.40
42097;DHT22;27754;45.414;11.084;2023-06-14T09:22:58;24.30;63.50
42097;DHT22;27754;45.414;11.084;2023-06-14T09:25:25;24.30;63.60
42097;DHT22;27754;45.414;11.084;2023-06-14T09:28:08;24.20;64.00
42097;DHT22;27754;45.414;11.084;2023-06-14T09:30:39;24.30;63.70
42097;DHT22;27754;45.414;11.084;2023-06-14T09:33:06;24.30;63.10
42097;DHT22;27754;45.414;11.084;2023-06-14T09:35:34;24.40;63.10
42097;DHT22;27754;45.414;11.084;2023-06-14T09:38:01;24.50;63.10
42097;DHT22;27754;45.414;11.084;2023-06-14T09:40:28;24.50;64.00
42097;DHT22;27754;45.414;11.084;2023-06-14T09:42:55;24.60;62.80
42097;DHT22;27754;45.414;11.084;2023-06-14T09:45:25;24.70;62.50
42097;DHT22;27754;45.414;11.084;2023-06-14T09:47:57;24.80;62.90
42097;DHT22;27754;45.414;11.084;2023-06-14T09:50:34;24.80;63.20
42097;DHT22;27754;45.414;11.084;2023-06-14T09:53:07;24.70;63.30
42097;DHT22;27754;45.414;11.084;2023-06-14T09:55:36;24.70;62.60
42097;DHT22;27754;45.414;11.084;2023-06-14T09:58:05;24.80;63.10
42097;DHT22;27754;45.414;11.084;2023-06-14T10:00:34;24.80;62.30
42097;DHT22;27754;45.414;11.084;2023-06-14T10:03:25;24.50;60.80
42097;DHT22;27754;45.414;11.084;2023-06-14T10:06:02;24.30;60.50
42097;DHT22;27754;45.414;11.084;2023-06-14T10:08:31;24.30;61.20
42097;DHT22;27754;45.414;11.084;2023-06-14T10:11:00;24.40;61.00
42097;DHT22;27754;45.414;11.084;2023-06-14T10:13:29;24.40;61.50
42097;DHT22;27754;45.414;11.084;2023-06-14T10:18:51;24.30;60.90
42097;DHT22;27754;45.414;11.084;2023-06-14T10:24:32;24.50;61.30
42097;DHT22;27754;45.414;11.084;2023-06-14T10:27:00;24.60;59.80
42097;DHT22;27754;45.414;11.084;2023-06-14T10:29:28;24.70;59.80
42097;DHT22;27754;45.414;11.084;2023-06-14T10:32:00;24.70;59.90
42097;DHT22;27754;45.414;11.084;2023-06-14T10:34:29;24.80;59.50
42097;DHT22;27754;45.414;11.084;2023-06-14T10:37:04;24.90;58.60
42097;DHT22;27754;45.414;11.084;2023-06-14T10:39:40;24.80;58.30
42097;DHT22;27754;45.414;11.084;2023-06-14T10:42:13;24.80;58.70
42097;DHT22;27754;45.414;11.084;2023-06-14T10:44:50;24.90;58.70
42097;DHT22;27754;45.414;11.084;2023-06-14T10:50:09;24.80;58.50
42097;DHT22;27754;45.414;11.084;2023-06-14T10:52:42;24.90;58.80
42097;DHT22;27754;45.414;11.084;2023-06-14T10:55:17;25.00;58.50
42097;DHT22;27754;45.414;11.084;2023-06-14T10:57:48;24.80;57.90
42097;DHT22;27754;45.414;11.084;2023-06-14T11:00:21;24.70;58.40
42097;DHT22;27754;45.414;11.084;2023-06-14T11:05:49;25.40;57.90
42097;DHT22;27754;45.414;11.084;2023-06-14T11:10:59;25.00;58.20
42097;DHT22;27754;45.414;11.084;2023-06-14T11:13:27;25.10;56.50
42097;DHT22;27754;45.414;11.084;2023-06-14T11:15:57;25.20;57.70
42097;DHT22;27754;45.414;11.084;2023-06-14T11:18:25;25.30;58.00
42097;DHT22;27754;45.414;11.084;2023-06-14T11:20:54;25.30;56.80
42097;DHT22;27754;45.414;11.084;2023-06-14T11:23:22;25.30;55.50
42097;DHT22;27754;45.414;11.084;2023-06-14T11:25:53;25.30;56.10
42097;DHT22;27754;45.414;11.084;2023-06-14T11:28:20;25.50;56.50
42097;DHT22;27754;45.414;11.084;2023-06-14T11:31:01;25.50;55.10
42097;DHT22;27754;45.414;11.084;2023-06-14T11:33:28;25.50;56.40
42097;DHT22;27754;45.414;11.084;2023-06-14T11:35:55;25.60;55.50
42097;DHT22;27754;45.414;11.084;2023-06-14T11:38:22;25.50;56.80
42097;DHT22;27754;45.414;11.084;2023-06-14T11:40:49;25.60;55.70
42097;DHT22;27754;45.414;11.084;2023-06-14T11:43:16;25.40;54.10
42097;DHT22;27754;45.414;11.084;2023-06-14T11:45:48;25.10;54.20
42097;DHT22;27754;45.414;11.084;2023-06-14T11:48:37;25.20;54.50
42097;DHT22;27754;45.414;11.084;2023-06-14T11:51:05;25.30;54.90
42097;DHT22;27754;45.414;11.084;2023-06-14T11:53:32;25.40;54.50
42097;DHT22;27754;45.414;11.084;2023-06-14T11:56:00;25.30;55.30
42097;DHT22;27754;45.414;11.084;2023-06-14T11:58:29;25.50;56.50
42097;DHT22;27754;45.414;11.084;2023-06-14T12:00:57;25.80;56.00
42097;DHT22;27754;45.414;11.084;2023-06-14T12:03:25;25.80;54.70
42097;DHT22;27754;45.414;11.084;2023-06-14T12:06:06;25.80;56.10
42097;DHT22;27754;45.414;11.084;2023-06-14T12:08:38;25.80;55.70
42097;DHT22;27754;45.414;11.084;2023-06-14T12:11:13;26.00;55.80
42097;DHT22;27754;45.414;11.084;2023-06-14T12:13:41;26.00;56.40
42097;DHT22;27754;45.414;11.084;2023-06-14T12:16:09;25.60;54.80
42097;DHT22;27754;45.414;11.084;2023-06-14T12:18:38;25.60;56.20
42097;DHT22;27754;45.414;11.084;2023-06-14T12:21:07;25.60;54.80
42097;DHT22;27754;45.414;11.084;2023-06-14T12:23:48;25.90;55.70
42097;DHT22;27754;45.414;11.084;2023-06-14T12:26:18;26.30;56.00
42097;DHT22;27754;45.414;11.084;2023-06-14T12:28:47;26.40;55.70
42097;DHT22;27754;45.414;11.084;2023-06-14T12:31:15;26.40;57.70
42097;DHT22;27754;45.414;11.084;2023-06-14T12:33:43;26.60;57.30
42097;DHT22;27754;45.414;11.084;2023-06-14T12:36:13;26.70;55.90
42097;DHT22;27754;45.414;11.084;2023-06-14T12:38:40;26.80;55.50
42097;DHT22;27754;45.414;11.084;2023-06-14T12:41:07;26.90;53.70
42097;DHT22;27754;45.414;11.084;2023-06-14T12:43:34;26.80;51.80
42097;DHT22;27754;45.414;11.084;2023-06-14T12:46:01;26.80;50.10
42097;DHT22;27754;45.414;11.084;2023-06-14T12:48:28;26.80;48.60
42097;DHT22;27754;45.414;11.084;2023-06-14T12:50:58;27.00;50.60
42097;DHT22;27754;45.414;11.084;2023-06-14T12:53:25;26.80;50.90
42097;DHT22;27754;45.414;11.084;2023-06-14T12:55:52;26.40;50.80
42097;DHT22;27754;45.414;11.084;2023-06-14T12:58:19;26.40;52.00
42097;DHT22;27754;45.414;11.084;2023-06-14T13:00:47;26.30;51.50
42097;DHT22;27754;45.414;11.084;2023-06-14T13:03:14;26.40;52.30
42097;DHT22;27754;45.414;11.084;2023-06-14T13:05:42;26.50;52.20
42097;DHT22;27754;45.414;11.084;2023-06-14T13:08:09;26.60;50.60
42097;DHT22;27754;45.414;11.084;2023-06-14T13:10:36;26.60;50.30
42097;DHT22;27754;45.414;11.084;2023-06-14T13:13:03;26.90;50.60
42097;DHT22;27754;45.414;11.084;2023-06-14T13:15:30;27.00;50.00
42097;DHT22;27754;45.414;11.084;2023-06-14T13:17:57;27.10;49.30
42097;DHT22;27754;45.414;11.084;2023-06-14T13:20:25;27.20;49.30
42097;DHT22;27754;45.414;11.084;2023-06-14T13:22:52;27.00;48.50
42097;DHT22;27754;45.414;11.084;2023-06-14T13:25:19;27.10;48.60
42097;DHT22;27754;45.414;11.084;2023-06-14T13:27:46;27.10;49.70
42097;DHT22;27754;45.414;11.084;2023-06-14T13:30:13;27.20;49.20
42097;DHT22;27754;45.414;11.084;2023-06-14T13:32:41;27.00;49.10
42097;DHT22;27754;45.414;11.084;2023-06-14T13:35:08;27.10;49.50
42097;DHT22;27754;45.414;11.084;2023-06-14T13:37:35;27.20;50.10
42097;DHT22;27754;45.414;11.084;2023-06-14T13:40:02;27.40;49.50
42097;DHT22;27754;45.414;11.084;2023-06-14T13:42:29;27.50;48.80
42097;DHT22;27754;45.414;11.084;2023-06-14T13:44:58;27.60;49.50
42097;DHT22;27754;45.414;11.084;2023-06-14T13:47:25;27.60;49.60
42097;DHT22;27754;45.414;11.084;2023-06-14T13:49:53;27.70;49.10
42097;DHT22;27754;45.414;11.084;2023-06-14T13:52:20;27.70;48.70
42097;DHT22;27754;45.414;11.084;2023-06-14T13:54:47;27.80;49.40
42097;DHT22;27754;45.414;11.084;2023-06-14T13:57:16;28.00;48.80
42097;DHT22;27754;45.414;11.084;2023-06-14T13:59:43;27.90;48.50
42097;DHT22;27754;45.414;11.084;2023-06-14T14:02:12;27.90;49.10
42097;DHT22;27754;45.414;11.084;2023-06-14T14:04:39;28.20;49.20
42097;DHT22;27754;45.414;11.084;2023-06-14T14:07:07;28.10;49.00
42097;DHT22;27754;45.414;11.084;2023-06-14T14:09:35;28.20;49.70
42097;DHT22;27754;45.414;11.084;2023-06-14T14:12:02;28.30;48.10
42097;DHT22;27754;45.414;11.084;2023-06-14T14:14:31;28.30;47.90
42097;DHT22;27754;45.414;11.084;2023-06-14T14:16:58;28.30;46.00
42097;DHT22;27754;45.414;11.084;2023-06-14T14:19:25;28.40;47.30
42097;DHT22;27754;45.414;11.084;2023-06-14T14:21:52;28.20;48.10
42097;DHT22;27754;45.414;11.084;2023-06-14T14:24:20;28.20;48.00
42097;DHT22;27754;45.414;11.084;2023-06-14T14:26:48;28.10;47.80
42097;DHT22;27754;45.414;11.084;2023-06-14T14:29:16;28.20;47.20
42097;DHT22;27754;45.414;11.084;2023-06-14T14:31:43;28.30;46.50
42097;DHT22;27754;45.414;11.084;2023-06-14T14:34:11;28.20;46.60
42097;DHT22;27754;45.414;11.084;2023-06-14T14:36:38;28.10;47.20
42097;DHT22;27754;45.414;11.084;2023-06-14T14:39:09;28.20;46.30
42097;DHT22;27754;45.414;11.084;2023-06-14T14:41:36;28.30;46.90
42097;DHT22;27754;45.414;11.084;2023-06-14T14:44:07;28.20;47.90
42097;DHT22;27754;45.414;11.084;2023-06-14T14:46:34;28.00;47.20
42097;DHT22;27754;45.414;11.084;2023-06-14T14:49:02;28.00;46.90
42097;DHT22;27754;45.414;11.084;2023-06-14T14:51:29;28.20;46.30
42097;DHT22;27754;45.414;11.084;2023-06-14T14:53:56;28.20;46.00
42097;DHT22;27754;45.414;11.084;2023-06-14T14:56:23;28.20;46.90
42097;DHT22;27754;45.414;11.084;2023-06-14T14:58:50;27.80;47.10
42097;DHT22;27754;45.414;11.084;2023-06-14T15:01:18;28.10;47.40
42097;DHT22;27754;45.414;11.084;2023-06-14T15:03:45;28.30;47.30
42097;DHT22;27754;45.414;11.084;2023-06-14T15:06:15;28.50;47.60
42097;DHT22;27754;45.414;11.084;2023-06-14T15:08:42;28.60;47.40
42097;DHT22;27754;45.414;11.084;2023-06-14T15:11:08;28.40;46.90
42097;DHT22;27754;45.414;11.084;2023-06-14T15:13:36;28.30;47.20
42097;DHT22;27754;45.414;11.084;2023-06-14T15:16:03;28.30;47.10
42097;DHT22;27754;45.414;11.084;2023-06-14T15:18:30;28.30;47.60
42097;DHT22;27754;45.414;11.084;2023-06-14T15:20:57;28.20;49.10
42097;DHT22;27754;45.414;11.084;2023-06-14T15:23:23;28.10;49.30
42097;DHT22;27754;45.414;11.084;2023-06-14T15:25:50;27.80;48.50
42097;DHT22;27754;45.414;11.084;2023-06-14T15:28:18;27.80;48.00
42097;DHT22;27754;45.414;11.084;2023-06-14T15:30:46;27.60;47.30
42097;DHT22;27754;45.414;11.084;2023-06-14T15:33:13;27.60;47.30
42097;DHT22;27754;45.414;11.084;2023-06-14T15:35:40;27.70;47.80
42097;DHT22;27754;45.414;11.084;2023-06-14T15:38:07;27.90;48.50